createdAt,value
2023-03-08T00:00:36.046Z,8.95
2023-03-08T00:03:03.844Z,9.68
2023-03-08T00:05:30.820Z,9.38
2023-03-08T00:08:06.315Z,9.00
2023-03-08T00:10:37.753Z,10.27
2023-03-08T00:13:04.967Z,9.68
2023-03-08T00:15:31.762Z,10.10
2023-03-08T00:18:17.221Z,11.00
2023-03-08T00:20:44.197Z,11.60
2023-03-08T00:23:11.037Z,11.70
2023-03-08T00:25:38.030Z,11.77
2023-03-08T00:28:05.150Z,12.88
2023-03-08T00:30:31.993Z,12.43
2023-03-08T00:32:58.948Z,11.25
2023-03-08T00:35:25.899Z,10.18
2023-03-08T00:37:52.802Z,9.45
2023-03-08T00:40:19.786Z,9.77
2023-03-08T00:42:46.978Z,8.88
2023-03-08T00:45:14.308Z,8.65
2023-03-08T00:47:41.311Z,9.13
2023-03-08T00:50:09.202Z,8.18
2023-03-08T00:52:36.118Z,6.38
2023-03-08T00:55:03.462Z,4.47
2023-03-08T00:57:32.434Z,3.47
2023-03-08T00:59:59.503Z,3.67
2023-03-08T01:02:26.376Z,3.17
2023-03-08T01:04:53.286Z,2.88
2023-03-08T01:07:24.455Z,2.90
2023-03-08T01:09:56.310Z,3.10
2023-03-08T01:12:25.491Z,2.83
2023-03-08T01:14:53.730Z,2.53
2023-03-08T01:17:20.706Z,2.40
2023-03-08T01:19:47.716Z,2.40
2023-03-08T01:22:14.615Z,2.67
2023-03-08T01:24:48.522Z,3.30
2023-03-08T01:27:17.524Z,3.15
2023-03-08T01:29:45.063Z,3.13
2023-03-08T01:32:12.331Z,3.35
2023-03-08T01:34:40.107Z,3.15
2023-03-08T01:37:07.129Z,2.83
2023-03-08T01:39:34.017Z,3.10
2023-03-08T01:42:07.617Z,2.90
2023-03-08T01:44:54.813Z,2.85
2023-03-08T01:47:24.821Z,2.45
2023-03-08T01:49:58.357Z,2.80
2023-03-08T01:52:39.980Z,2.40
2023-03-08T01:55:11.148Z,2.35
2023-03-08T01:57:45.740Z,2.72
2023-03-08T02:03:03.456Z,2.83
2023-03-08T02:05:31.370Z,2.78
2023-03-08T02:07:58.424Z,2.50
2023-03-08T02:10:25.926Z,2.72
2023-03-08T02:12:52.831Z,2.80
2023-03-08T02:15:21.409Z,2.47
2023-03-08T02:17:48.918Z,2.00
2023-03-08T02:20:26.281Z,2.50
2023-03-08T02:22:53.727Z,2.30
2023-03-08T02:25:24.688Z,2.60
2023-03-08T02:27:55.149Z,2.03
2023-03-08T02:30:30.522Z,2.42
2023-03-08T02:32:58.581Z,2.60
2023-03-08T02:35:26.674Z,2.50
2023-03-08T02:37:53.627Z,2.15
2023-03-08T02:40:20.802Z,2.42
2023-03-08T02:42:47.775Z,2.53
2023-03-08T02:45:14.746Z,2.10
2023-03-08T02:47:42.571Z,2.20
2023-03-08T02:50:10.150Z,2.00
2023-03-08T02:52:37.232Z,2.45
2023-03-08T02:55:04.714Z,2.05
2023-03-08T02:57:31.930Z,2.00
2023-03-08T02:59:58.772Z,2.38
2023-03-08T03:02:25.870Z,2.55
2023-03-08T03:04:52.812Z,2.22
2023-03-08T03:07:19.700Z,2.10
2023-03-08T03:09:46.981Z,1.70
2023-03-08T03:12:13.958Z,1.90
2023-03-08T03:14:40.854Z,2.00
2023-03-08T03:17:07.765Z,2.33
2023-03-08T03:19:35.026Z,2.20
2023-03-08T03:22:02.140Z,2.40
2023-03-08T03:24:29.262Z,2.63
2023-03-08T03:26:56.126Z,2.45
2023-03-08T03:29:23.055Z,2.60
2023-03-08T03:31:50.109Z,2.15
2023-03-08T03:34:17.182Z,2.67
2023-03-08T03:36:44.152Z,2.88
2023-03-08T03:39:11.000Z,2.50
2023-03-08T03:41:37.830Z,2.30
2023-03-08T03:44:05.109Z,2.65
2023-03-08T03:46:32.356Z,2.30
2023-03-08T03:48:59.705Z,2.30
2023-03-08T03:51:27.058Z,2.03
2023-03-08T03:53:53.971Z,2.35
2023-03-08T03:56:24.747Z,2.35
2023-03-08T03:58:52.928Z,2.33
2023-03-08T04:01:22.908Z,2.33
2023-03-08T04:03:50.004Z,2.10
2023-03-08T04:06:20.062Z,2.25
2023-03-08T04:08:47.896Z,2.85
2023-03-08T04:11:18.542Z,2.38
2023-03-08T04:13:45.873Z,2.38
2023-03-08T04:16:14.191Z,2.25
2023-03-08T04:18:41.690Z,2.50
2023-03-08T04:21:09.510Z,2.50
2023-03-08T04:23:37.556Z,3.30
2023-03-08T04:26:05.857Z,2.90
2023-03-08T04:28:34.146Z,3.17
2023-03-08T04:31:01.686Z,2.95
2023-03-08T04:33:28.735Z,3.30
2023-03-08T04:35:55.712Z,2.80
2023-03-08T04:38:22.777Z,3.22
2023-03-08T04:41:05.669Z,3.95
2023-03-08T04:43:33.769Z,3.00
2023-03-08T04:46:01.841Z,3.45
2023-03-08T04:48:28.949Z,2.70
2023-03-08T04:50:58.019Z,2.78
2023-03-08T04:53:26.157Z,3.00
2023-03-08T04:55:53.649Z,3.22
2023-03-08T04:58:21.191Z,2.60
2023-03-08T05:00:48.607Z,2.60
2023-03-08T05:03:15.789Z,2.63
2023-03-08T05:05:55.049Z,2.83
2023-03-08T05:08:23.328Z,2.60
2023-03-08T05:11:00.944Z,2.90
2023-03-08T05:13:41.125Z,2.60
2023-03-08T05:16:09.229Z,2.70
2023-03-08T05:18:36.238Z,3.38
2023-03-08T05:21:12.033Z,2.72
2023-03-08T05:23:39.107Z,3.27
2023-03-08T05:26:08.006Z,3.63
2023-03-08T05:28:37.508Z,3.00
2023-03-08T05:31:05.913Z,3.25
2023-03-08T05:33:33.868Z,2.90
2023-03-08T05:36:01.078Z,3.35
2023-03-08T05:38:28.820Z,3.00
2023-03-08T05:40:58.270Z,4.60
2023-03-08T05:43:25.326Z,3.90
2023-03-08T05:46:00.507Z,4.07
2023-03-08T05:48:27.562Z,3.55
2023-03-08T05:50:55.113Z,3.60
2023-03-08T05:53:24.466Z,3.92
2023-03-08T05:55:53.546Z,3.47
2023-03-08T05:58:20.515Z,3.15
2023-03-08T06:00:48.608Z,3.55
2023-03-08T06:03:16.840Z,3.10
2023-03-08T06:05:44.080Z,2.92
2023-03-08T06:08:11.130Z,2.33
2023-03-08T06:10:38.210Z,2.50
2023-03-08T06:13:05.191Z,2.67
2023-03-08T06:15:33.093Z,2.47
2023-03-08T06:18:01.199Z,3.42
2023-03-08T06:20:28.360Z,3.00
2023-03-08T06:22:55.653Z,2.78
2023-03-08T06:25:23.664Z,4.45
2023-03-08T06:27:50.929Z,5.70
2023-03-08T06:30:18.309Z,4.32
2023-03-08T06:32:45.537Z,3.70
2023-03-08T06:35:12.714Z,3.30
2023-03-08T06:37:39.906Z,3.13
2023-03-08T06:40:09.401Z,2.90
2023-03-08T06:42:41.623Z,3.15
2023-03-08T06:45:11.481Z,2.88
2023-03-08T06:47:38.745Z,4.03
2023-03-08T06:50:05.984Z,5.10
2023-03-08T06:52:37.895Z,6.25
2023-03-08T06:55:05.670Z,6.10
2023-03-08T06:57:32.722Z,5.97
2023-03-08T06:59:59.934Z,6.25
2023-03-08T07:02:26.849Z,4.78
2023-03-08T07:04:54.577Z,4.65
2023-03-08T07:07:21.593Z,4.70
2023-03-08T07:09:51.267Z,5.18
2023-03-08T07:12:19.470Z,5.65
2023-03-08T07:14:46.691Z,6.25
2023-03-08T07:17:13.829Z,6.38
2023-03-08T07:19:40.772Z,6.63
2023-03-08T07:22:10.690Z,7.10
2023-03-08T07:24:37.816Z,6.43
2023-03-08T07:27:05.404Z,5.13
2023-03-08T07:29:32.266Z,5.38
2023-03-08T07:31:59.400Z,5.55
2023-03-08T07:34:26.448Z,6.13
2023-03-08T07:36:53.400Z,4.72
2023-03-08T07:39:20.478Z,4.63
2023-03-08T07:41:47.823Z,4.43
2023-03-08T07:44:14.909Z,4.10
2023-03-08T07:46:42.007Z,3.13
2023-03-08T07:49:10.837Z,2.65
2023-03-08T07:51:47.206Z,3.40
2023-03-08T07:54:14.364Z,2.72
2023-03-08T07:56:41.495Z,2.70
2023-03-08T07:59:30.127Z,3.25
2023-03-08T08:01:57.386Z,2.80
2023-03-08T08:04:24.615Z,2.83
2023-03-08T08:06:51.991Z,2.90
2023-03-08T08:09:22.531Z,2.78
2023-03-08T08:11:52.405Z,3.88
2023-03-08T08:14:19.325Z,3.58
2023-03-08T08:16:46.717Z,4.05
2023-03-08T08:19:14.903Z,5.13
2023-03-08T08:21:51.961Z,5.07
2023-03-08T08:24:19.689Z,5.30
2023-03-08T08:26:46.786Z,5.70
2023-03-08T08:29:15.048Z,5.43
2023-03-08T08:31:48.278Z,5.68
2023-03-08T08:34:15.423Z,4.25
2023-03-08T08:36:42.408Z,5.18
2023-03-08T08:39:12.195Z,6.20
2023-03-08T08:41:39.138Z,5.72
2023-03-08T08:44:06.097Z,7.00
2023-03-08T08:46:35.297Z,6.07
2023-03-08T08:49:05.561Z,5.18
2023-03-08T08:51:34.341Z,4.57
2023-03-08T08:54:01.345Z,4.90
2023-03-08T08:56:29.976Z,5.60
2023-03-08T08:58:58.017Z,5.65
2023-03-08T09:01:28.539Z,5.03
2023-03-08T09:03:59.975Z,4.47
2023-03-08T09:06:31.446Z,4.57
2023-03-08T09:09:00.847Z,4.90
2023-03-08T09:11:28.275Z,4.80
2023-03-08T09:13:56.136Z,5.53
2023-03-08T09:16:25.010Z,4.05
2023-03-08T09:18:52.532Z,5.25
2023-03-08T09:21:19.831Z,4.60
2023-03-08T09:23:46.974Z,3.83
2023-03-08T09:26:14.606Z,3.88
2023-03-08T09:28:41.960Z,3.30
2023-03-08T09:31:13.218Z,2.90
2023-03-08T09:33:42.038Z,3.00
2023-03-08T09:36:15.852Z,2.80
2023-03-08T09:38:43.372Z,3.17
2023-03-08T09:41:15.818Z,2.80
2023-03-08T09:43:59.112Z,2.70
2023-03-08T09:46:36.669Z,2.92
2023-03-08T09:49:10.381Z,3.70
2023-03-08T09:51:43.521Z,3.00
2023-03-08T09:54:17.420Z,2.83
2023-03-08T09:56:50.502Z,3.03
2023-03-08T09:59:42.634Z,3.05
2023-03-08T10:02:49.602Z,3.00
2023-03-08T10:05:28.968Z,3.72
2023-03-08T10:08:09.565Z,3.50
2023-03-08T10:11:03.693Z,3.00
2023-03-08T10:13:35.492Z,3.28
2023-03-08T10:16:23.705Z,3.10
2023-03-08T10:19:11.662Z,4.25
2023-03-08T10:21:40.855Z,3.85
2023-03-08T10:24:08.053Z,4.55
2023-03-08T10:26:34.969Z,4.28
2023-03-08T10:29:01.864Z,3.78
2023-03-08T10:31:34.752Z,3.97
2023-03-08T10:34:11.354Z,4.00
2023-03-08T10:39:14.585Z,3.25
2023-03-08T10:41:45.877Z,3.53
2023-03-08T10:44:39.365Z,3.15
2023-03-08T10:47:27.571Z,4.53
2023-03-08T10:50:26.317Z,8.18
2023-03-08T10:53:07.968Z,2.42
2023-03-08T10:55:44.890Z,2.85
2023-03-08T10:58:31.060Z,2.63
2023-03-08T11:01:19.326Z,2.17
2023-03-08T11:03:46.754Z,2.95
2023-03-08T11:06:16.028Z,3.42
2023-03-08T11:08:59.462Z,3.20
2023-03-08T11:11:27.559Z,6.18
2023-03-08T11:13:56.064Z,3.53
2023-03-08T11:17:00.423Z,3.05
2023-03-08T11:19:54.149Z,2.33
2023-03-08T11:22:53.481Z,2.58
2023-03-08T11:25:32.865Z,2.30
2023-03-08T11:28:47.309Z,2.85
2023-03-08T11:31:26.920Z,2.03
2023-03-08T11:34:38.823Z,2.55
2023-03-08T11:37:50.766Z,2.20
2023-03-08T11:40:50.123Z,2.17
2023-03-08T11:43:44.489Z,2.38
2023-03-08T11:46:41.433Z,2.53
2023-03-08T11:49:27.774Z,2.08
2023-03-08T11:52:05.083Z,2.47
2023-03-08T11:54:54.916Z,2.05
2023-03-08T11:57:26.335Z,2.50
2023-03-08T12:00:13.460Z,3.15
2023-03-08T12:05:29.539Z,2.90
2023-03-08T12:07:59.565Z,2.38
2023-03-08T12:10:56.868Z,3.38
2023-03-08T12:13:38.058Z,2.63
2023-03-08T12:16:20.430Z,3.15
2023-03-08T12:18:59.195Z,4.50
2023-03-08T12:21:53.012Z,9.55
2023-03-08T12:24:39.350Z,6.45
2023-03-08T12:27:15.811Z,3.90
2023-03-08T12:30:01.885Z,2.75
2023-03-08T12:32:30.605Z,3.03
2023-03-08T12:35:07.324Z,2.70
2023-03-08T12:40:22.390Z,2.95
2023-03-08T12:42:51.083Z,4.28
2023-03-08T12:45:21.660Z,3.42
2023-03-08T12:48:00.018Z,2.95
2023-03-08T12:50:27.210Z,2.30
2023-03-08T12:53:13.952Z,3.38
2023-03-08T12:55:41.053Z,3.00
2023-03-08T12:58:21.468Z,2.35
2023-03-08T13:01:02.070Z,5.00
2023-03-08T13:03:41.211Z,2.17
2023-03-08T13:06:24.493Z,3.42
2023-03-08T13:09:24.373Z,2.30
2023-03-08T13:12:02.928Z,2.80
2023-03-08T13:14:45.406Z,2.30
2023-03-08T13:18:00.034Z,2.15
2023-03-08T13:20:45.520Z,2.60
2023-03-08T13:23:16.167Z,2.30
2023-03-08T13:25:59.474Z,2.25
2023-03-08T13:28:47.710Z,2.63
2023-03-08T13:31:25.434Z,2.70
2023-03-08T13:33:54.983Z,3.47
2023-03-08T13:36:34.365Z,2.65
2023-03-08T13:39:06.271Z,2.30
2023-03-08T13:41:42.905Z,2.38
2023-03-08T13:47:28.353Z,2.75
2023-03-08T13:49:58.787Z,2.70
2023-03-08T13:52:32.260Z,2.38
2023-03-08T13:55:10.644Z,2.60
2023-03-08T13:57:40.673Z,2.72
2023-03-08T14:00:30.050Z,2.83
2023-03-08T14:02:58.298Z,3.92
2023-03-08T14:05:27.947Z,8.27
2023-03-08T14:08:18.604Z,4.13
2023-03-08T14:10:52.071Z,3.53
2023-03-08T14:13:30.212Z,3.25
2023-03-08T14:16:00.709Z,3.15
2023-03-08T14:18:35.479Z,2.67
2023-03-08T14:21:14.223Z,2.17
2023-03-08T14:24:03.264Z,3.25
2023-03-08T14:26:41.236Z,2.30
2023-03-08T14:29:27.646Z,2.70
2023-03-08T14:32:21.326Z,2.63
2023-03-08T14:34:50.033Z,2.92
2023-03-08T14:37:16.877Z,3.63
2023-03-08T14:39:46.689Z,3.75
2023-03-08T14:42:36.990Z,4.13
2023-03-08T14:45:25.336Z,2.92
2023-03-08T14:48:01.685Z,3.95
2023-03-08T14:50:35.113Z,5.05
2023-03-08T14:53:04.593Z,3.33
2023-03-08T14:55:36.042Z,3.30
2023-03-08T14:58:12.954Z,4.40
2023-03-08T15:00:55.320Z,4.53
2023-03-08T15:03:24.208Z,4.95
2023-03-08T15:05:52.331Z,5.22
2023-03-08T15:08:19.841Z,4.93
2023-03-08T15:10:49.673Z,5.25
2023-03-08T15:13:21.992Z,5.00
2023-03-08T15:15:52.946Z,4.15
2023-03-08T15:18:21.075Z,3.60
2023-03-08T15:20:51.091Z,3.60
2023-03-08T15:23:22.695Z,3.60
2023-03-08T15:25:50.502Z,4.03
2023-03-08T15:28:20.211Z,2.92
2023-03-08T15:30:48.047Z,3.35
2023-03-08T15:33:15.455Z,3.60
2023-03-08T15:35:44.124Z,4.30
2023-03-08T15:38:18.130Z,5.20
2023-03-08T15:40:45.064Z,4.65
2023-03-08T15:43:12.181Z,4.78
2023-03-08T15:45:44.607Z,4.88
2023-03-08T15:48:18.002Z,4.47
2023-03-08T15:50:45.794Z,4.75
2023-03-08T15:53:20.583Z,5.25
2023-03-08T15:55:53.532Z,4.68
2023-03-08T15:58:20.595Z,6.20
2023-03-08T16:00:48.065Z,5.13
2023-03-08T16:03:15.494Z,4.57
2023-03-08T16:05:43.884Z,5.57
2023-03-08T16:08:11.734Z,6.35
2023-03-08T16:10:42.178Z,7.75
2023-03-08T16:13:09.446Z,8.23
2023-03-08T16:15:41.477Z,9.18
2023-03-08T16:18:09.061Z,8.48
2023-03-08T16:20:36.268Z,9.63
2023-03-08T16:23:04.898Z,10.35
2023-03-08T16:25:32.439Z,11.05
2023-03-08T16:28:01.131Z,11.68
2023-03-08T16:30:28.795Z,11.65
2023-03-08T16:32:59.985Z,12.48
2023-03-08T16:35:29.240Z,13.18
2023-03-08T16:37:56.634Z,13.77
2023-03-08T16:40:23.994Z,14.77
2023-03-08T16:42:52.028Z,13.63
2023-03-08T16:45:19.565Z,17.10
2023-03-08T16:47:46.897Z,19.80
2023-03-08T16:50:14.237Z,18.90
2023-03-08T16:52:46.238Z,18.00
2023-03-08T16:55:13.310Z,18.65
2023-03-08T16:57:40.549Z,20.25
2023-03-08T17:00:13.408Z,20.00
2023-03-08T17:02:40.878Z,20.67
2023-03-08T17:05:10.846Z,20.80
2023-03-08T17:07:59.893Z,23.42
2023-03-08T17:10:26.852Z,22.50
2023-03-08T17:12:55.633Z,22.50
2023-03-08T17:15:22.896Z,21.17
2023-03-08T17:17:49.919Z,18.40
2023-03-08T17:20:17.481Z,17.02
2023-03-08T17:22:46.189Z,16.52
2023-03-08T17:25:13.503Z,17.50
2023-03-08T17:27:44.184Z,26.50
2023-03-08T17:30:15.133Z,24.45
2023-03-08T17:32:42.400Z,19.48
2023-03-08T17:35:09.813Z,19.80
2023-03-08T17:37:44.531Z,17.45
2023-03-08T17:40:15.079Z,17.40
2023-03-08T17:42:42.445Z,15.73
2023-03-08T17:45:11.957Z,16.05
2023-03-08T17:47:39.338Z,17.85
2023-03-08T17:50:08.005Z,18.08
2023-03-08T17:52:37.013Z,19.52
2023-03-08T17:55:06.398Z,18.67
2023-03-08T17:57:36.356Z,20.40
2023-03-08T18:00:06.149Z,17.70
2023-03-08T18:02:33.861Z,16.33
2023-03-08T18:05:00.944Z,14.18
2023-03-08T18:07:29.478Z,11.70
2023-03-08T18:09:57.069Z,10.70
2023-03-08T18:12:24.946Z,10.65
2023-03-08T18:14:53.909Z,9.68
2023-03-08T18:17:22.826Z,9.13
2023-03-08T18:19:50.420Z,9.35
2023-03-08T18:22:17.447Z,11.10
2023-03-08T18:24:45.618Z,9.60
2023-03-08T18:27:14.486Z,10.20
2023-03-08T18:29:41.735Z,11.38
2023-03-08T18:32:10.825Z,10.70
2023-03-08T18:34:39.154Z,10.98
2023-03-08T18:37:06.505Z,10.52
2023-03-08T18:39:34.003Z,9.65
2023-03-08T18:42:02.396Z,10.98
2023-03-08T18:44:29.980Z,9.70
2023-03-08T18:46:57.419Z,9.98
2023-03-08T18:49:25.971Z,8.48
2023-03-08T18:51:53.251Z,13.55
2023-03-08T18:54:23.841Z,11.52
2023-03-08T18:56:53.881Z,10.60
2023-03-08T18:59:21.921Z,10.85
2023-03-08T19:01:50.369Z,11.57
2023-03-08T19:04:20.537Z,10.52
2023-03-08T19:06:47.846Z,11.15
2023-03-08T19:09:19.085Z,10.98
2023-03-08T19:11:48.326Z,11.52
2023-03-08T19:14:16.811Z,13.00
2023-03-08T19:16:44.072Z,10.75
2023-03-08T19:19:15.131Z,12.60
2023-03-08T19:21:45.198Z,11.90
2023-03-08T19:24:14.042Z,12.05
2023-03-08T19:26:43.274Z,10.98
2023-03-08T19:29:14.316Z,10.63
2023-03-08T19:31:44.441Z,10.95
2023-03-08T19:34:13.955Z,11.27
2023-03-08T19:36:45.262Z,11.95
2023-03-08T19:39:20.175Z,10.82
2023-03-08T19:41:55.920Z,10.95
2023-03-08T19:44:24.029Z,10.93
2023-03-08T19:46:53.150Z,10.52
2023-03-08T19:49:23.021Z,9.55
2023-03-08T19:51:52.618Z,9.40
2023-03-08T19:54:20.378Z,9.38
2023-03-08T19:56:48.521Z,9.55
2023-03-08T19:59:15.961Z,9.23
2023-03-08T20:01:44.907Z,9.65
2023-03-08T20:04:13.012Z,10.35
2023-03-08T20:06:46.299Z,10.93
2023-03-08T20:09:19.288Z,11.30
2023-03-08T20:11:46.494Z,11.00
2023-03-08T20:14:13.490Z,11.20
2023-03-08T20:16:41.005Z,11.50
2023-03-08T20:19:08.651Z,11.30
2023-03-08T20:21:36.149Z,9.70
2023-03-08T20:24:03.225Z,8.63
2023-03-08T20:26:35.694Z,10.00
2023-03-08T20:29:02.917Z,10.35
2023-03-08T20:31:31.707Z,9.68
2023-03-08T20:33:59.728Z,8.93
2023-03-08T20:36:30.733Z,7.97
2023-03-08T20:38:59.059Z,7.93
2023-03-08T20:41:46.129Z,7.45
2023-03-08T20:46:43.169Z,6.32
2023-03-08T20:49:12.986Z,7.75
2023-03-08T20:51:40.251Z,8.38
2023-03-08T20:54:07.232Z,8.35
2023-03-08T20:56:34.746Z,8.32
2023-03-08T20:59:02.655Z,6.72
2023-03-08T21:01:32.262Z,7.07
2023-03-08T21:04:01.039Z,7.07
2023-03-08T21:06:30.932Z,6.28
2023-03-08T21:08:59.785Z,7.20
2023-03-08T21:11:27.150Z,6.00
2023-03-08T21:13:55.716Z,5.57
2023-03-08T21:16:24.503Z,6.57
2023-03-08T21:19:01.440Z,6.50
2023-03-08T21:21:40.843Z,7.03
2023-03-08T21:24:19.406Z,7.20
2023-03-08T21:26:46.705Z,7.75
2023-03-08T21:29:16.697Z,8.77
2023-03-08T21:31:48.476Z,6.95
2023-03-08T21:34:16.017Z,7.70
2023-03-08T21:36:43.452Z,8.10
2023-03-08T21:39:12.151Z,7.25
2023-03-08T21:41:42.418Z,7.28
2023-03-08T21:44:14.191Z,7.63
2023-03-08T21:46:42.162Z,7.10
2023-03-08T21:49:25.087Z,7.70
2023-03-08T21:51:54.421Z,7.88
2023-03-08T21:54:22.442Z,8.23
2023-03-08T21:56:49.751Z,7.55
2023-03-08T21:59:17.287Z,6.45
2023-03-08T22:01:50.472Z,6.85
2023-03-08T22:04:17.917Z,8.38
2023-03-08T22:06:44.856Z,6.88
2023-03-08T22:09:11.922Z,11.02
2023-03-08T22:11:41.543Z,8.55
2023-03-08T22:14:09.006Z,8.00
2023-03-08T22:16:38.335Z,8.98
2023-03-08T22:19:10.232Z,9.93
2023-03-08T22:21:37.387Z,10.07
2023-03-08T22:24:04.856Z,9.60
2023-03-08T22:26:32.230Z,10.73
2023-03-08T22:28:59.703Z,11.02
2023-03-08T22:31:29.708Z,11.98
2023-03-08T22:33:57.538Z,13.40
2023-03-08T22:36:25.105Z,13.30
2023-03-08T22:38:52.143Z,15.38
2023-03-08T22:41:24.717Z,13.77
2023-03-08T22:43:52.493Z,13.68
2023-03-08T22:46:22.742Z,14.80
2023-03-08T22:48:51.318Z,14.75
2023-03-08T22:51:20.716Z,15.27
2023-03-08T22:53:47.593Z,13.52
2023-03-08T22:56:26.999Z,13.95
2023-03-08T22:58:54.275Z,12.82
2023-03-08T23:01:23.521Z,12.48
2023-03-08T23:03:54.142Z,11.02
2023-03-08T23:06:21.473Z,11.77
2023-03-08T23:08:49.056Z,11.13
2023-03-08T23:11:16.396Z,11.23
2023-03-08T23:13:43.978Z,11.32
2023-03-08T23:16:16.855Z,9.65
2023-03-08T23:18:53.033Z,9.77
2023-03-08T23:21:22.386Z,8.60
2023-03-08T23:23:49.701Z,7.75
2023-03-08T23:26:26.904Z,6.47
2023-03-08T23:28:55.557Z,5.90
2023-03-08T23:31:26.325Z,4.90
2023-03-08T23:33:54.224Z,5.03
2023-03-08T23:36:23.810Z,4.28
2023-03-08T23:38:52.816Z,4.43
2023-03-08T23:41:20.242Z,4.22
2023-03-08T23:43:47.687Z,3.75
2023-03-08T23:46:18.111Z,3.75
2023-03-08T23:48:47.229Z,3.20
2023-03-08T23:51:20.086Z,3.35
2023-03-08T23:53:51.873Z,3.90
2023-03-08T23:56:27.591Z,3.80
2023-03-08T23:58:57.076Z,3.70
